createdAt,value
2018-12-31T00:01:39.652Z,4.23
2018-12-31T00:04:10.019Z,3.40
2018-12-31T00:06:40.384Z,4.80
2018-12-31T00:09:10.743Z,3.83
2018-12-31T00:11:41.072Z,5.23
2018-12-31T00:14:11.411Z,5.03
2018-12-31T00:16:41.776Z,5.10
2018-12-31T00:19:12.103Z,4.07
2018-12-31T00:21:42.475Z,3.47
2018-12-31T00:24:12.804Z,2.73
2018-12-31T00:26:44.262Z,3.73
2018-12-31T00:29:14.588Z,3.37
2018-12-31T00:31:44.947Z,4.20
2018-12-31T00:34:15.272Z,2.53
2018-12-31T00:36:45.631Z,3.03
2018-12-31T00:39:15.964Z,2.73
2018-12-31T00:41:46.296Z,4.57
2018-12-31T00:44:16.656Z,2.53
2018-12-31T00:46:47.059Z,2.50
2018-12-31T00:49:17.416Z,1.93
2018-12-31T00:51:47.771Z,3.13
2018-12-31T00:54:18.211Z,4.13
2018-12-31T00:56:48.607Z,4.83
2018-12-31T00:59:18.943Z,2.73
2018-12-31T01:01:49.280Z,3.77
2018-12-31T01:04:19.611Z,5.20
2018-12-31T01:06:50.080Z,4.67
2018-12-31T01:09:20.403Z,2.97
2018-12-31T01:11:50.799Z,3.13
2018-12-31T01:14:21.126Z,3.97
2018-12-31T01:16:51.455Z,3.40
2018-12-31T01:19:22.113Z,4.93
2018-12-31T01:21:52.472Z,2.70
2018-12-31T01:24:22.873Z,3.23
2018-12-31T01:26:53.248Z,3.47
2018-12-31T01:29:23.999Z,3.27
2018-12-31T01:31:54.404Z,2.83
2018-12-31T01:34:24.734Z,3.30
2018-12-31T01:36:55.144Z,3.30
2018-12-31T01:39:25.575Z,4.10
2018-12-31T01:41:55.972Z,7.80
2018-12-31T01:44:26.327Z,5.23
2018-12-31T01:46:56.664Z,5.53
2018-12-31T01:49:27.035Z,3.23
2018-12-31T01:51:57.421Z,4.50
2018-12-31T01:54:27.797Z,3.00
2018-12-31T01:56:58.286Z,3.37
2018-12-31T01:59:28.660Z,4.37
2018-12-31T02:01:58.995Z,5.30
2018-12-31T02:04:29.394Z,3.03
2018-12-31T02:06:59.733Z,2.73
2018-12-31T02:09:30.051Z,3.43
2018-12-31T02:12:00.412Z,4.30
2018-12-31T02:14:31.184Z,4.60
2018-12-31T02:17:01.560Z,4.33
2018-12-31T02:19:31.894Z,5.30
2018-12-31T02:22:02.614Z,3.30
2018-12-31T02:24:33.011Z,3.73
2018-12-31T02:27:03.403Z,6.03
2018-12-31T02:29:33.733Z,5.93
2018-12-31T02:32:04.064Z,7.17
2018-12-31T02:34:34.527Z,3.97
2018-12-31T02:37:04.848Z,2.90
2018-12-31T02:39:35.613Z,6.83
2018-12-31T02:42:05.965Z,5.43
2018-12-31T02:44:36.413Z,3.60
2018-12-31T02:47:06.739Z,8.33
2018-12-31T02:49:37.072Z,6.10
2018-12-31T02:52:07.529Z,3.70
2018-12-31T02:54:37.904Z,4.07
2018-12-31T02:57:08.248Z,6.23
2018-12-31T02:59:38.636Z,5.93
2018-12-31T03:02:08.975Z,4.20
2018-12-31T03:04:39.311Z,4.50
2018-12-31T03:07:09.668Z,7.50
2018-12-31T03:09:39.991Z,8.00
2018-12-31T03:12:10.362Z,5.00
2018-12-31T03:14:40.040Z,6.33
2018-12-31T03:17:10.283Z,6.70
2018-12-31T03:19:39.967Z,7.03
2018-12-31T03:22:10.214Z,6.90
2018-12-31T03:24:39.901Z,7.93
2018-12-31T03:27:10.130Z,5.67
2018-12-31T03:29:39.834Z,7.73
2018-12-31T03:32:10.078Z,4.67
2018-12-31T03:34:40.475Z,5.70
2018-12-31T03:37:10.837Z,4.10
2018-12-31T03:39:40.516Z,4.93
2018-12-31T03:42:10.751Z,10.67
2018-12-31T03:44:40.459Z,6.40
2018-12-31T03:47:12.290Z,5.80
2018-12-31T03:49:42.908Z,7.33
2018-12-31T03:52:13.316Z,6.23
2018-12-31T03:54:43.640Z,6.07
2018-12-31T03:57:13.999Z,8.80
2018-12-31T03:59:44.331Z,7.23
2018-12-31T04:02:14.684Z,9.83
2018-12-31T04:04:45.007Z,6.17
2018-12-31T04:07:15.381Z,10.10
2018-12-31T04:09:45.707Z,14.47
2018-12-31T04:12:16.073Z,6.00
2018-12-31T04:14:46.411Z,10.77
2018-12-31T04:17:16.744Z,6.93
2018-12-31T04:19:47.111Z,4.93
2018-12-31T04:22:17.439Z,7.53
2018-12-31T04:24:47.795Z,6.00
2018-12-31T04:27:18.128Z,8.87
2018-12-31T04:29:48.832Z,6.70
2018-12-31T04:32:19.159Z,5.93
2018-12-31T04:34:49.509Z,6.47
2018-12-31T04:37:19.840Z,7.37
2018-12-31T04:39:50.168Z,8.03
2018-12-31T04:42:20.591Z,9.07
2018-12-31T04:44:50.915Z,6.20
2018-12-31T04:47:21.294Z,5.97
2018-12-31T04:49:51.679Z,6.93
2018-12-31T04:52:22.039Z,5.97
2018-12-31T04:54:52.361Z,9.50
2018-12-31T04:57:22.724Z,6.83
2018-12-31T04:59:53.056Z,9.13
2018-12-31T05:02:23.488Z,5.93
2018-12-31T05:04:53.927Z,8.57
2018-12-31T05:07:24.251Z,9.17
2018-12-31T05:09:54.606Z,5.77
2018-12-31T05:12:25.011Z,9.57
2018-12-31T05:14:55.343Z,8.63
2018-12-31T05:17:25.671Z,8.97
2018-12-31T05:19:56.035Z,6.87
2018-12-31T05:22:26.362Z,8.80
2018-12-31T05:24:56.835Z,6.87
2018-12-31T05:27:27.163Z,7.57
2018-12-31T05:29:57.499Z,10.73
2018-12-31T05:32:27.832Z,7.57
2018-12-31T05:34:58.244Z,11.33
2018-12-31T05:37:28.571Z,11.70
2018-12-31T05:39:59.200Z,8.90
2018-12-31T05:42:29.557Z,9.00
2018-12-31T05:45:00.927Z,9.67
2018-12-31T05:47:42.949Z,12.60
2018-12-31T05:50:15.838Z,14.97
2018-12-31T05:52:47.227Z,11.03
2018-12-31T05:55:18.582Z,12.20
2018-12-31T05:57:49.960Z,14.93
2018-12-31T06:00:21.415Z,11.87
2018-12-31T06:02:52.112Z,10.80
2018-12-31T06:05:23.655Z,12.67
2018-12-31T06:07:56.182Z,17.20
2018-12-31T06:11:07.832Z,15.37
2018-12-31T06:13:19.378Z,17.77
2018-12-31T06:15:49.620Z,16.90
2018-12-31T06:18:21.783Z,14.60
2018-12-31T06:20:55.120Z,14.13
2018-12-31T06:23:44.576Z,11.93
2018-12-31T06:26:16.178Z,14.90
2018-12-31T06:28:47.192Z,17.30
2018-12-31T06:31:18.409Z,18.20
2018-12-31T06:36:48.875Z,12.93
2018-12-31T06:39:23.227Z,12.70
2018-12-31T06:41:54.900Z,17.90
2018-12-31T06:44:26.229Z,14.50
2018-12-31T06:46:57.404Z,17.20
2018-12-31T06:49:28.884Z,12.90
2018-12-31T06:52:02.519Z,14.00
2018-12-31T06:54:33.560Z,17.40
2018-12-31T06:57:05.215Z,14.53
2018-12-31T06:59:36.989Z,11.93
2018-12-31T07:02:09.597Z,11.30
2018-12-31T07:04:40.988Z,11.00
2018-12-31T07:07:11.114Z,11.90
2018-12-31T07:09:41.696Z,12.97
2018-12-31T07:12:12.605Z,12.83
2018-12-31T07:14:42.912Z,12.13
2018-12-31T07:17:13.204Z,6.60
2018-12-31T07:22:33.174Z,8.10
2018-12-31T07:25:05.770Z,6.87
2018-12-31T07:27:37.425Z,6.27
2018-12-31T07:30:07.855Z,14.13
2018-12-31T07:32:39.373Z,6.60
2018-12-31T07:35:13.482Z,14.27
2018-12-31T07:37:44.778Z,8.13
2018-12-31T07:40:16.449Z,9.90
2018-12-31T07:42:47.696Z,7.60
2018-12-31T07:45:18.961Z,8.10
2018-12-31T07:47:50.066Z,6.37
2018-12-31T07:50:22.444Z,6.83
2018-12-31T07:52:54.168Z,5.73
2018-12-31T07:55:29.420Z,6.90
2018-12-31T07:58:00.044Z,8.30
2018-12-31T08:00:31.873Z,7.17
2018-12-31T08:03:03.575Z,6.43
2018-12-31T08:05:39.333Z,11.50
2018-12-31T08:08:10.983Z,7.37
2018-12-31T08:10:43.286Z,8.73
2018-12-31T08:13:14.636Z,6.70
2018-12-31T08:19:13.062Z,7.90
2018-12-31T08:21:44.637Z,10.43
2018-12-31T08:24:16.371Z,7.23
2018-12-31T08:26:47.367Z,5.80
2018-12-31T08:29:22.089Z,6.07
2018-12-31T08:31:53.636Z,7.90
2018-12-31T08:34:25.349Z,10.47
2018-12-31T08:36:57.861Z,6.23
2018-12-31T08:39:29.521Z,6.47
2018-12-31T08:42:00.915Z,10.27
2018-12-31T08:44:36.165Z,11.00
2018-12-31T08:47:08.188Z,6.03
2018-12-31T08:49:42.979Z,10.27
2018-12-31T08:52:14.271Z,7.57
2018-12-31T08:54:45.768Z,10.00
2018-12-31T08:57:16.984Z,9.83
2018-12-31T08:59:48.183Z,7.93
2018-12-31T09:02:19.844Z,9.57
2018-12-31T09:04:50.212Z,9.47
2018-12-31T09:07:20.961Z,8.07
2018-12-31T09:09:51.419Z,11.03
2018-12-31T09:12:21.852Z,10.83
2018-12-31T09:14:54.420Z,7.83
2018-12-31T09:17:24.144Z,5.00
2018-12-31T09:19:54.417Z,7.57
2018-12-31T09:22:24.844Z,7.23
2018-12-31T09:24:55.328Z,8.23
2018-12-31T09:27:25.703Z,7.23
2018-12-31T09:29:56.185Z,8.40
2018-12-31T09:32:26.586Z,6.00
2018-12-31T09:34:57.108Z,6.23
2018-12-31T09:37:27.529Z,9.20
2018-12-31T09:39:57.992Z,5.93
2018-12-31T09:42:28.525Z,5.37
2018-12-31T09:44:59.006Z,5.37
2018-12-31T09:47:29.456Z,5.80
2018-12-31T09:49:59.808Z,7.93
2018-12-31T09:52:30.275Z,10.33
2018-12-31T09:55:00.764Z,7.83
2018-12-31T09:57:31.141Z,8.00
2018-12-31T10:00:01.663Z,6.67
2018-12-31T10:02:33.540Z,6.73
2018-12-31T10:05:03.964Z,5.70
2018-12-31T11:50:23.604Z,9.73
2018-12-31T12:15:10.965Z,13.90
2018-12-31T12:22:13.869Z,13.23
2018-12-31T12:25:12.114Z,10.73
2018-12-31T12:46:04.264Z,10.70
2018-12-31T13:11:52.075Z,10.47
2018-12-31T13:15:02.885Z,9.83
2018-12-31T13:28:01.445Z,10.80
2018-12-31T13:31:14.012Z,12.00
2018-12-31T13:33:47.748Z,13.50
2018-12-31T13:36:18.160Z,10.77
2018-12-31T13:38:48.583Z,11.63
2018-12-31T13:41:18.998Z,13.77
2018-12-31T13:43:49.460Z,14.07
2018-12-31T13:46:19.907Z,11.73
2018-12-31T13:48:50.280Z,12.13
2018-12-31T13:51:21.772Z,10.40
2018-12-31T13:53:52.530Z,13.00
2018-12-31T13:56:22.939Z,11.87
2018-12-31T13:58:53.281Z,11.63
2018-12-31T14:01:23.735Z,10.53
2018-12-31T14:03:53.846Z,7.07
2018-12-31T14:06:24.144Z,12.80
2018-12-31T14:08:53.967Z,15.93
2018-12-31T14:11:24.277Z,10.47
2018-12-31T14:13:54.040Z,11.07
2018-12-31T14:16:24.495Z,9.87
2018-12-31T14:18:55.914Z,11.57
2018-12-31T14:21:26.351Z,12.57
2018-12-31T14:23:56.684Z,11.70
2018-12-31T14:26:28.202Z,11.60
2018-12-31T14:28:58.619Z,10.97
2018-12-31T14:31:29.075Z,11.07
2018-12-31T14:33:59.819Z,10.37
2018-12-31T14:36:31.314Z,11.67
2018-12-31T14:39:02.155Z,10.20
2018-12-31T14:41:32.735Z,8.63
2018-12-31T14:44:03.215Z,12.40
2018-12-31T14:46:33.626Z,9.70
2018-12-31T14:49:04.047Z,16.70
2018-12-31T14:51:34.459Z,14.13
2018-12-31T14:54:04.812Z,14.23
2018-12-31T14:56:35.240Z,20.90
2018-12-31T14:59:05.660Z,19.07
2018-12-31T15:01:36.716Z,17.27
2018-12-31T15:04:07.083Z,16.87
2018-12-31T15:06:37.507Z,16.77
2018-12-31T15:09:07.975Z,16.40
2018-12-31T15:11:38.401Z,18.03
2018-12-31T15:14:08.811Z,14.57
2018-12-31T15:16:39.256Z,20.23
2018-12-31T15:19:09.596Z,19.67
2018-12-31T15:21:40.023Z,22.73
2018-12-31T15:24:10.742Z,27.33
2018-12-31T15:26:41.174Z,20.67
2018-12-31T15:29:11.620Z,26.30
2018-12-31T15:31:42.043Z,24.30
2018-12-31T15:34:12.459Z,30.77
2018-12-31T15:36:42.836Z,42.57
2018-12-31T15:39:13.176Z,31.07
2018-12-31T15:41:43.520Z,37.20
2018-12-31T15:44:13.316Z,35.60
2018-12-31T15:46:44.160Z,33.43
2018-12-31T15:49:14.588Z,30.23
2018-12-31T15:51:45.015Z,32.37
2018-12-31T15:54:15.355Z,28.33
2018-12-31T15:56:45.809Z,34.33
2018-12-31T15:59:16.221Z,37.23
2018-12-31T16:01:47.723Z,47.40
2018-12-31T16:04:18.141Z,37.30
2018-12-31T16:06:48.563Z,32.10
2018-12-31T16:09:19.027Z,37.67
2018-12-31T16:11:49.436Z,26.43
2018-12-31T16:14:20.863Z,23.53
2018-12-31T16:16:51.287Z,25.07
2018-12-31T16:19:21.739Z,23.07
2018-12-31T16:21:52.091Z,19.70
2018-12-31T16:24:22.528Z,18.63
2018-12-31T16:26:52.868Z,25.80
2018-12-31T16:29:23.328Z,21.70
2018-12-31T16:31:53.755Z,21.40
2018-12-31T16:34:24.208Z,24.27
2018-12-31T16:36:54.655Z,33.77
2018-12-31T16:39:25.086Z,37.40
2018-12-31T16:41:55.468Z,37.30
2018-12-31T16:44:25.924Z,26.40
2018-12-31T16:46:55.673Z,30.37
2018-12-31T16:49:25.999Z,32.33
2018-12-31T16:52:02.484Z,26.40
2018-12-31T16:54:27.727Z,33.37
2018-12-31T16:56:58.183Z,39.03
2018-12-31T16:59:28.527Z,43.27
2018-12-31T17:01:58.956Z,38.20
2018-12-31T17:04:29.315Z,42.17
2018-12-31T17:07:00.082Z,38.97
2018-12-31T17:09:30.523Z,32.20
2018-12-31T17:12:01.031Z,36.63
2018-12-31T17:14:31.474Z,42.93
2018-12-31T17:17:01.924Z,43.10
2018-12-31T17:19:32.345Z,41.70
2018-12-31T17:22:02.807Z,42.93
2018-12-31T17:24:33.223Z,43.43
2018-12-31T17:27:04.179Z,34.60
2018-12-31T17:29:34.628Z,46.17
2018-12-31T17:32:05.099Z,50.67
2018-12-31T17:34:35.528Z,53.40
2018-12-31T17:37:05.979Z,50.90
2018-12-31T17:39:36.206Z,49.97
2018-12-31T17:42:09.911Z,46.33
2018-12-31T17:44:38.847Z,63.43
2018-12-31T17:47:09.357Z,58.83
2018-12-31T17:49:39.819Z,48.60
2018-12-31T17:52:10.278Z,51.37
2018-12-31T17:54:40.687Z,53.63
2018-12-31T17:57:11.072Z,48.30
2018-12-31T17:59:41.563Z,47.30
2018-12-31T18:02:12.032Z,43.43
2018-12-31T18:04:42.755Z,42.07
2018-12-31T18:07:13.147Z,43.30
2018-12-31T18:09:43.571Z,39.47
2018-12-31T18:12:14.059Z,38.17
2018-12-31T18:14:44.483Z,37.43
2018-12-31T18:17:14.895Z,40.90
2018-12-31T18:19:45.319Z,35.90
2018-12-31T18:22:15.752Z,70.27
2018-12-31T18:24:46.179Z,37.90
2018-12-31T18:27:16.999Z,39.00
2018-12-31T18:29:47.435Z,38.00
2018-12-31T18:32:17.126Z,34.43
2018-12-31T18:34:47.416Z,34.57
2018-12-31T18:37:17.187Z,29.10
2018-12-31T18:39:49.418Z,30.47
2018-12-31T18:42:19.692Z,33.13
2018-12-31T18:44:50.144Z,41.60
2018-12-31T18:47:20.580Z,44.47
2018-12-31T18:49:51.040Z,40.90
2018-12-31T18:52:21.455Z,34.00
2018-12-31T18:54:51.894Z,35.30
2018-12-31T18:57:22.318Z,39.50
2018-12-31T18:59:52.756Z,29.73
2018-12-31T19:02:23.307Z,35.13
2018-12-31T19:04:53.735Z,30.60
2018-12-31T19:07:24.187Z,34.80
2018-12-31T19:09:54.598Z,27.57
2018-12-31T19:12:24.975Z,32.33
2018-12-31T19:14:55.404Z,37.13
2018-12-31T19:17:25.836Z,35.33
2018-12-31T19:19:56.256Z,33.10
2018-12-31T19:22:26.691Z,80.60
2018-12-31T19:24:57.115Z,46.47
2018-12-31T19:27:27.579Z,57.77
2018-12-31T19:29:58.003Z,30.60
2018-12-31T19:32:28.460Z,32.93
2018-12-31T19:34:58.227Z,32.10
2018-12-31T19:37:29.890Z,33.50
2018-12-31T19:40:00.403Z,30.80
2018-12-31T19:42:30.835Z,33.60
2018-12-31T19:45:01.273Z,34.20
2018-12-31T19:47:31.687Z,40.87
2018-12-31T19:50:02.148Z,31.37
2018-12-31T19:52:32.559Z,32.80
2018-12-31T19:55:03.042Z,67.00
2018-12-31T19:57:33.463Z,35.43
2018-12-31T20:00:04.479Z,46.07
2018-12-31T20:02:35.264Z,41.57
2018-12-31T20:05:05.747Z,31.70
2018-12-31T20:07:36.163Z,82.50
2018-12-31T20:10:07.166Z,91.83
2018-12-31T20:12:37.592Z,87.77
2018-12-31T20:15:08.044Z,59.07
2018-12-31T20:17:38.476Z,60.13
2018-12-31T20:20:09.195Z,54.00
2018-12-31T20:22:39.615Z,29.97
2018-12-31T20:25:10.071Z,61.10
2018-12-31T20:27:40.475Z,76.33
2018-12-31T20:30:10.934Z,34.97
2018-12-31T20:32:41.351Z,55.53
2018-12-31T20:35:11.805Z,41.70
2018-12-31T20:37:42.222Z,57.43
2018-12-31T20:40:12.676Z,39.43
2018-12-31T20:42:43.092Z,40.93
2018-12-31T20:45:13.520Z,87.00
2018-12-31T20:47:43.979Z,34.90
2018-12-31T20:50:14.399Z,71.80
2018-12-31T20:52:44.843Z,55.93
2018-12-31T20:55:15.251Z,26.60
2018-12-31T20:57:45.648Z,34.17
2018-12-31T21:00:16.054Z,67.80
2018-12-31T21:02:46.483Z,43.33
2018-12-31T21:05:16.904Z,70.40
2018-12-31T21:07:47.362Z,36.07
2018-12-31T21:10:17.775Z,72.37
2018-12-31T21:12:48.536Z,45.50
2018-12-31T21:15:18.996Z,47.43
2018-12-31T21:17:49.379Z,51.73
2018-12-31T21:20:20.887Z,46.13
2018-12-31T21:22:51.375Z,40.77
2018-12-31T21:25:21.151Z,38.50
2018-12-31T21:27:51.595Z,76.30
2018-12-31T21:30:21.372Z,42.47
2018-12-31T21:32:51.674Z,40.50
2018-12-31T21:35:23.077Z,40.07
2018-12-31T21:37:53.556Z,90.13
2018-12-31T21:40:23.975Z,53.23
2018-12-31T21:42:54.334Z,32.67
2018-12-31T21:45:24.798Z,36.30
2018-12-31T21:47:55.583Z,36.67
2018-12-31T21:50:25.967Z,57.43
2018-12-31T21:52:56.380Z,38.90
2018-12-31T21:55:26.811Z,36.13
2018-12-31T21:57:57.247Z,39.03
2018-12-31T22:00:27.879Z,34.33
2018-12-31T22:02:58.331Z,53.17
2018-12-31T22:05:29.091Z,52.30
2018-12-31T22:07:59.491Z,56.87
2018-12-31T22:10:29.900Z,72.03
2018-12-31T22:13:00.355Z,48.93
2018-12-31T22:15:32.630Z,85.23
2018-12-31T22:18:02.883Z,41.03
2018-12-31T22:20:33.323Z,76.20
2018-12-31T22:23:04.057Z,35.70
2018-12-31T22:25:34.507Z,63.67
2018-12-31T22:28:04.940Z,38.77
2018-12-31T22:30:35.360Z,34.00
2018-12-31T22:33:05.807Z,32.17
2018-12-31T22:35:48.275Z,31.47
2018-12-31T22:38:18.707Z,40.73
2018-12-31T22:40:49.125Z,35.23
2018-12-31T22:43:19.629Z,34.43
2018-12-31T22:45:50.062Z,33.77
2018-12-31T22:48:20.471Z,30.57
2018-12-31T22:50:50.826Z,39.53
2018-12-31T22:53:21.258Z,27.37
2018-12-31T22:55:51.975Z,40.47
2018-12-31T22:58:22.335Z,40.67
2018-12-31T23:00:52.787Z,27.17
2018-12-31T23:03:23.204Z,66.90
2018-12-31T23:05:53.663Z,55.87
2018-12-31T23:08:23.439Z,52.33
2018-12-31T23:10:53.776Z,39.50
2018-12-31T23:13:23.562Z,32.50
2018-12-31T23:15:53.883Z,30.97
2018-12-31T23:18:23.695Z,41.13
2018-12-31T23:20:55.393Z,37.87
2018-12-31T23:23:25.893Z,63.30
2018-12-31T23:25:58.039Z,36.67
2018-12-31T23:28:28.471Z,39.67
2018-12-31T23:30:59.187Z,44.67
2018-12-31T23:33:29.620Z,45.47
2018-12-31T23:36:00.092Z,48.53
2018-12-31T23:38:30.517Z,47.57
2018-12-31T23:41:00.976Z,48.03
2018-12-31T23:43:31.404Z,44.00
2018-12-31T23:46:01.231Z,50.20
2018-12-31T23:48:31.573Z,46.77
2018-12-31T23:51:01.343Z,48.93
2018-12-31T23:53:31.915Z,54.10
2018-12-31T23:56:02.116Z,39.07
2018-12-31T23:58:32.414Z,40.10
